Terminal Aerodrome Forecast
Issued by NWS Paducah, KY

Home | Current Version | Previous Version | Text Only | Print | Product List | Glossary On
Versions: 1 2 3 4 5 6 7 8 9 10 11 12 13 14 15 16 17 18
000
FTUS43 KPAH 081100
TAFPAH
TAF
KPAH 081138Z 0812/0912 23007KT P6SM SCT100 BKN150
     FM081400 24012G19KT P6SM SCT040 BKN150
     FM081700 25012G19KT P6SM VCTS SCT040CB BKN150
     FM082100 27009KT P6SM BKN050
     FM090100 31004KT P6SM SCT060=

USA.gov is the U.S. government's official web portal to all federal, state and local government web resources and services.